Time;durP1;ratioP1;P1;durP2;ratioP2;P2;SDS_P1;SDS_P2;PMS_P1;PMS_P2;Temp;Humidity;BMP_temperature;BMP_pressure;BME280_temperature;BME280_humidity;BME280_pressure;Samples;Min_cycle;Max_cycle;Signal;HPM_P1;HPM_P2
2023/05/13 00:00:58;;;;;;;2.22;1.50;;;23.30;43.50;;;;;;5055089;28;20025;-65
2023/05/13 00:03:24;;;;;;;1.80;1.40;;;23.30;43.50;;;;;;5054396;28;20317;-64
2023/05/13 00:05:50;;;;;;;1.40;1.25;;;23.30;43.40;;;;;;5058208;28;20051;-65
2023/05/13 00:08:16;;;;;;;2.00;1.50;;;23.30;43.40;;;;;;5056553;28;20400;-66
2023/05/13 00:10:42;;;;;;;1.70;1.50;;;23.30;43.40;;;;;;5062252;28;20500;-64
2023/05/13 00:13:07;;;;;;;1.88;1.38;;;23.30;43.30;;;;;;5060844;28;20124;-63
2023/05/13 00:15:33;;;;;;;1.60;1.50;;;23.30;43.30;;;;;;5054860;28;20025;-63
2023/05/13 00:17:59;;;;;;;1.88;1.40;;;23.30;43.30;;;;;;5041169;28;20375;-65
2023/05/13 00:20:25;;;;;;;1.33;1.05;;;23.20;43.20;;;;;;5057191;28;20128;-65
2023/05/13 00:22:51;;;;;;;1.25;1.15;;;23.30;43.20;;;;;;5053512;28;20499;-63
2023/05/13 00:25:17;;;;;;;1.60;1.17;;;23.20;43.10;;;;;;5053098;28;20028;-65
2023/05/13 00:27:42;;;;;;;1.67;1.25;;;23.20;43.10;;;;;;5056053;28;20047;-64
2023/05/13 00:30:09;;;;;;;2.70;1.20;;;23.20;43.10;;;;;;5056412;28;20021;-63
2023/05/13 00:32:35;;;;;;;1.45;1.30;;;23.30;43.10;;;;;;5042094;28;20036;-63
2023/05/13 00:35:01;;;;;;;2.17;1.50;;;23.20;43.00;;;;;;5059162;28;20141;-64
2023/05/13 00:37:27;;;;;;;1.65;1.25;;;23.20;43.00;;;;;;5038199;28;20037;-63
2023/05/13 00:39:53;;;;;;;1.33;1.20;;;23.20;43.00;;;;;;5039735;28;20032;-63
2023/05/13 00:42:19;;;;;;;1.67;1.20;;;23.20;43.00;;;;;;5053346;28;20044;-63
2023/05/13 00:44:45;;;;;;;2.20;1.35;;;23.20;42.90;;;;;;5056420;28;20511;-66
2023/05/13 00:47:11;;;;;;;1.80;1.58;;;23.20;42.90;;;;;;5053479;28;20101;-64
2023/05/13 00:49:37;;;;;;;1.30;1.20;;;23.20;42.90;;;;;;5057082;28;20396;-64
2023/05/13 00:52:03;;;;;;;3.88;1.40;;;23.20;42.90;;;;;;5028108;28;20039;-63
2023/05/13 00:54:29;;;;;;;2.08;1.63;;;23.20;42.90;;;;;;5037479;28;20110;-65
2023/05/13 00:56:56;;;;;;;1.75;1.38;;;23.10;42.90;;;;;;5037527;28;20033;-63
2023/05/13 00:59:24;;;;;;;2.33;1.50;;;23.10;42.90;;;;;;5025655;28;20021;-64
2023/05/13 01:02:14;;;;;;;2.10;1.25;;;23.10;42.90;;;;;;5038992;28;20016;-63
2023/05/13 01:04:51;;;;;;;1.83;1.50;;;23.10;42.90;;;;;;5043093;28;20351;-64
2023/05/13 01:07:23;;;;;;;3.00;1.23;;;23.10;42.80;;;;;;5038917;28;20048;-63
2023/05/13 01:10:02;;;;;;;1.38;1.23;;;23.10;42.80;;;;;;5040824;28;20063;-65
2023/05/13 01:12:38;;;;;;;1.70;1.55;;;23.10;42.80;;;;;;5042965;28;20117;-66
2023/05/13 01:15:11;;;;;;;1.60;1.30;;;23.10;42.80;;;;;;5038343;28;20442;-64
2023/05/13 01:17:49;;;;;;;1.80;1.50;;;23.10;42.80;;;;;;5041645;28;20433;-64
2023/05/13 01:20:20;;;;;;;1.85;1.50;;;23.10;42.80;;;;;;5040873;28;20062;-65
2023/05/13 01:22:46;;;;;;;2.92;1.48;;;23.10;42.80;;;;;;5059300;28;20392;-63
2023/05/13 01:25:12;;;;;;;4.18;1.50;;;23.10;42.80;;;;;;5042778;28;20064;-66
2023/05/13 01:27:39;;;;;;;2.50;1.50;;;23.00;42.70;;;;;;5044103;28;20020;-64
2023/05/13 01:30:06;;;;;;;2.17;1.65;;;23.00;42.70;;;;;;5057751;28;20041;-63
2023/05/13 01:32:33;;;;;;;1.98;1.40;;;23.10;42.90;;;;;;5042725;28;20455;-64
2023/05/13 01:35:00;;;;;;;2.63;1.30;;;23.00;42.70;;;;;;5042916;28;20024;-63
2023/05/13 01:37:28;;;;;;;2.33;1.63;;;23.00;42.70;;;;;;5040605;28;20044;-64
2023/05/13 01:39:54;;;;;;;2.13;1.77;;;23.00;42.80;;;;;;5059210;28;20069;-62
2023/05/13 01:42:20;;;;;;;2.25;1.58;;;23.00;42.70;;;;;;5041117;28;20075;-64
2023/05/13 01:44:46;;;;;;;3.40;1.55;;;23.00;42.70;;;;;;5058700;28;20103;-64
2023/05/13 01:47:11;;;;;;;1.67;1.23;;;23.00;42.80;;;;;;5043578;28;20048;-63
2023/05/13 01:49:37;;;;;;;1.73;1.33;;;23.00;42.70;;;;;;5041230;28;20029;-63
2023/05/13 01:52:05;;;;;;;2.33;1.48;;;23.00;42.70;;;;;;5033552;28;20364;-64
2023/05/13 01:54:31;;;;;;;1.85;1.35;;;23.00;42.70;;;;;;5032889;28;20033;-65
2023/05/13 01:57:03;;;;;;;2.05;1.35;;;23.00;42.80;;;;;;5040335;28;20337;-63
2023/05/13 01:59:30;;;;;;;2.15;1.58;;;23.00;42.80;;;;;;5038806;28;20024;-63
2023/05/13 02:01:55;;;;;;;1.80;1.30;;;23.00;42.70;;;;;;5062100;28;20047;-63
2023/05/13 02:04:21;;;;;;;1.90;1.50;;;23.00;42.70;;;;;;5041242;28;20364;-64
2023/05/13 02:06:47;;;;;;;1.40;1.20;;;22.90;42.70;;;;;;5038996;28;20359;-63
2023/05/13 02:09:13;;;;;;;2.50;1.80;;;22.90;42.70;;;;;;5041285;28;20021;-64
2023/05/13 02:11:40;;;;;;;2.38;1.45;;;22.90;42.70;;;;;;5040716;28;20166;-63
2023/05/13 02:14:05;;;;;;;1.52;1.40;;;22.90;42.70;;;;;;5040394;28;20136;-65
2023/05/13 02:16:33;;;;;;;2.03;1.58;;;22.90;42.70;;;;;;5046324;28;20147;-64
2023/05/13 02:18:59;;;;;;;1.48;1.10;;;22.90;42.70;;;;;;5041942;28;20214;-63
2023/05/13 02:21:28;;;;;;;1.95;1.48;;;22.90;42.70;;;;;;5061639;28;20364;-63
2023/05/13 02:23:53;;;;;;;1.83;1.30;;;22.90;42.70;;;;;;5061399;28;20067;-63
2023/05/13 02:26:21;;;;;;;2.53;1.70;;;22.90;42.70;;;;;;5056443;28;20037;-62
2023/05/13 02:28:47;;;;;;;1.58;1.48;;;22.90;42.70;;;;;;5041157;28;20347;-64
2023/05/13 02:31:13;;;;;;;2.03;1.52;;;22.90;42.80;;;;;;5057176;28;20036;-62
2023/05/13 02:33:41;;;;;;;1.45;1.25;;;22.90;42.80;;;;;;5038942;28;20048;-63
2023/05/13 02:36:07;;;;;;;3.42;1.30;;;22.90;42.80;;;;;;5059077;28;21634;-65
2023/05/13 02:38:33;;;;;;;2.20;1.60;;;22.80;42.70;;;;;;5040914;28;20443;-63
2023/05/13 02:41:00;;;;;;;1.85;1.50;;;22.80;43.40;;;;;;5041272;28;20336;-63
2023/05/13 02:43:27;;;;;;;1.25;1.10;;;22.80;42.80;;;;;;5038085;28;20037;-64
2023/05/13 02:45:58;;;;;;;2.65;1.35;;;22.80;42.80;;;;;;5039411;28;20021;-62
2023/05/13 02:48:24;;;;;;;1.65;1.33;;;22.80;42.80;;;;;;5040978;28;20470;-62
2023/05/13 02:50:50;;;;;;;3.40;1.58;;;22.80;42.80;;;;;;5044708;28;20050;-63
2023/05/13 02:53:15;;;;;;;2.20;1.10;;;22.80;42.80;;;;;;5036909;28;20317;-64
2023/05/13 02:55:48;;;;;;;1.60;1.30;;;22.80;42.90;;;;;;5045859;28;20480;-62
2023/05/13 02:58:14;;;;;;;2.03;1.50;;;22.80;42.90;;;;;;5031519;28;20116;-63
2023/05/13 03:00:40;;;;;;;1.75;1.50;;;22.80;43.50;;;;;;5044899;28;20180;-65
2023/05/13 03:03:05;;;;;;;2.05;1.52;;;22.80;42.90;;;;;;5043966;28;20176;-65
2023/05/13 03:05:31;;;;;;;1.67;1.40;;;22.80;42.90;;;;;;5055475;28;20048;-63
2023/05/13 03:07:57;;;;;;;1.63;1.40;;;22.80;42.90;;;;;;5059977;28;20020;-63
2023/05/13 03:10:23;;;;;;;2.70;1.65;;;22.80;42.90;;;;;;5059513;28;20061;-63
2023/05/13 03:12:50;;;;;;;2.15;1.67;;;22.80;42.90;;;;;;5036383;28;20235;-65
2023/05/13 03:15:15;;;;;;;3.80;1.48;;;22.80;42.90;;;;;;5057256;28;20484;-63
2023/05/13 03:17:43;;;;;;;1.88;1.63;;;22.80;43.00;;;;;;5034665;28;20036;-63
2023/05/13 03:20:10;;;;;;;2.47;1.50;;;22.70;42.90;;;;;;5038752;28;20025;-63
2023/05/13 03:22:39;;;;;;;4.10;1.80;;;22.70;42.90;;;;;;5035359;28;20024;-63
2023/05/13 03:25:06;;;;;;;2.10;1.60;;;22.70;42.90;;;;;;5040278;28;20344;-63
2023/05/13 03:27:39;;;;;;;1.75;1.33;;;22.70;42.90;;;;;;5037833;28;20029;-64
2023/05/13 03:30:07;;;;;;;1.95;1.70;;;22.70;43.00;;;;;;5037248;28;20124;-62
2023/05/13 03:32:39;;;;;;;2.60;1.40;;;22.70;43.00;;;;;;5021376;28;20044;-63
2023/05/13 03:35:06;;;;;;;1.98;1.50;;;22.70;43.00;;;;;;5022929;28;20020;-63
2023/05/13 03:37:31;;;;;;;2.55;1.50;;;22.70;43.10;;;;;;5037303;28;20025;-64
2023/05/13 03:39:57;;;;;;;3.38;1.70;;;22.70;43.10;;;;;;5042736;28;20417;-64
2023/05/13 03:42:25;;;;;;;2.55;1.80;;;22.70;43.10;;;;;;5036658;28;20077;-64
2023/05/13 03:44:51;;;;;;;2.33;1.60;;;22.70;43.10;;;;;;5039909;28;20346;-65
2023/05/13 03:47:17;;;;;;;1.85;1.60;;;22.60;43.10;;;;;;5056180;28;20032;-64
2023/05/13 03:49:44;;;;;;;4.00;1.55;;;22.60;43.10;;;;;;5041268;28;20733;-65
2023/05/13 03:52:10;;;;;;;1.70;1.60;;;22.70;43.20;;;;;;5056971;28;20100;-63
2023/05/13 03:54:36;;;;;;;1.65;1.38;;;22.60;43.10;;;;;;5061588;28;20352;-63
2023/05/13 03:57:02;;;;;;;2.08;1.75;;;22.60;43.10;;;;;;5042031;28;20027;-63
2023/05/13 03:59:28;;;;;;;2.95;1.83;;;22.60;43.10;;;;;;5022454;28;20029;-64
2023/05/13 04:01:53;;;;;;;2.60;1.73;;;22.60;43.10;;;;;;5066191;28;20059;-64
2023/05/13 04:04:19;;;;;;;2.05;1.70;;;22.60;43.20;;;;;;5033313;28;20052;-64
2023/05/13 04:06:45;;;;;;;1.73;1.45;;;22.60;43.10;;;;;;5055879;28;20128;-64
2023/05/13 04:09:11;;;;;;;2.63;1.50;;;22.60;43.10;;;;;;5036093;28;20119;-64
2023/05/13 04:11:36;;;;;;;3.28;1.50;;;22.60;43.10;;;;;;5035251;28;20076;-64
2023/05/13 04:14:02;;;;;;;1.95;1.65;;;22.60;43.10;;;;;;5054307;28;20060;-63
2023/05/13 04:16:28;;;;;;;2.83;1.65;;;22.60;43.10;;;;;;5037296;28;20309;-64
2023/05/13 04:18:54;;;;;;;2.28;1.67;;;22.60;43.10;;;;;;5056516;28;20438;-64
2023/05/13 04:21:20;;;;;;;2.15;1.77;;;22.60;43.10;;;;;;5042570;28;20025;-63
2023/05/13 04:23:47;;;;;;;1.92;1.60;;;22.60;43.20;;;;;;5040292;28;20044;-64
2023/05/13 04:26:14;;;;;;;2.95;1.77;;;22.60;43.10;;;;;;5053754;28;20036;-63
2023/05/13 04:28:40;;;;;;;1.63;1.52;;;22.60;43.10;;;;;;5038829;28;20107;-64
2023/05/13 04:31:06;;;;;;;2.60;1.98;;;22.60;43.10;;;;;;5042333;28;20021;-63
2023/05/13 04:33:34;;;;;;;1.92;1.65;;;22.60;43.20;;;;;;5038077;28;20423;-65
2023/05/13 04:36:00;;;;;;;1.63;1.50;;;22.60;43.20;;;;;;5060437;28;20048;-64
2023/05/13 04:38:26;;;;;;;2.08;1.35;;;22.60;43.80;;;;;;5040033;28;20033;-65
2023/05/13 04:40:52;;;;;;;3.33;1.60;;;22.60;43.20;;;;;;5041023;28;20119;-63
2023/05/13 04:43:28;;;;;;;2.78;1.67;;;22.60;43.20;;;;;;5043481;28;20583;-63
2023/05/13 04:45:57;;;;;;;2.25;1.80;;;22.50;43.20;;;;;;5037348;28;20020;-64
2023/05/13 04:48:22;;;;;;;4.32;1.90;;;22.60;43.30;;;;;;5040303;28;20029;-65
2023/05/13 04:50:50;;;;;;;2.13;1.90;;;22.50;43.20;;;;;;5056366;28;20036;-64
2023/05/13 04:53:16;;;;;;;3.03;1.70;;;22.50;43.20;;;;;;5039483;28;20037;-65
2023/05/13 04:55:45;;;;;;;2.42;1.70;;;22.50;43.30;;;;;;5018773;28;20029;-66
2023/05/13 04:58:11;;;;;;;2.15;1.77;;;22.60;43.30;;;;;;5022415;28;20039;-65
2023/05/13 05:00:36;;;;;;;2.58;1.90;;;22.50;43.30;;;;;;5040156;28;20024;-64
2023/05/13 05:03:02;;;;;;;1.60;1.50;;;22.60;43.30;;;;;;5056597;28;20051;-63
2023/05/13 05:05:28;;;;;;;1.70;1.40;;;22.60;43.30;;;;;;5037800;28;20033;-64
2023/05/13 05:07:54;;;;;;;2.83;1.77;;;22.50;43.30;;;;;;5058588;28;20039;-65
2023/05/13 05:10:20;;;;;;;2.97;1.80;;;22.60;43.30;;;;;;5039007;28;20166;-66
2023/05/13 05:12:51;;;;;;;2.13;1.60;;;22.60;43.30;;;;;;5038314;28;20091;-64
2023/05/13 05:15:17;;;;;;;2.20;1.73;;;22.60;43.30;;;;;;5036202;28;20063;-64
2023/05/13 05:17:46;;;;;;;2.22;1.65;;;22.60;43.30;;;;;;5037294;28;20070;-64
2023/05/13 05:20:12;;;;;;;1.75;1.65;;;22.60;43.30;;;;;;5058226;28;20036;-64
2023/05/13 05:22:40;;;;;;;3.03;1.85;;;22.60;43.30;;;;;;5036482;28;20169;-64
2023/05/13 05:25:08;;;;;;;2.38;1.83;;;22.60;43.20;;;;;;5021975;28;20594;-64
2023/05/13 05:27:34;;;;;;;2.42;1.60;;;22.60;43.20;;;;;;5039740;28;20023;-65
2023/05/13 05:30:00;;;;;;;2.47;1.67;;;22.60;43.20;;;;;;5025681;28;20028;-64
2023/05/13 05:32:26;;;;;;;2.22;1.73;;;22.60;43.20;;;;;;5054393;28;20016;-64
2023/05/13 05:34:52;;;;;;;2.00;1.60;;;22.60;43.20;;;;;;5043644;28;20033;-65
2023/05/13 05:37:18;;;;;;;1.63;1.50;;;22.60;43.10;;;;;;5037812;28;20047;-64
2023/05/13 05:39:44;;;;;;;2.63;1.63;;;22.60;43.10;;;;;;5038598;28;20108;-63
2023/05/13 05:42:10;;;;;;;2.28;1.73;;;22.60;43.10;;;;;;5040304;28;20037;-64
2023/05/13 05:44:36;;;;;;;2.67;1.80;;;22.60;43.10;;;;;;5038386;28;20170;-65
2023/05/13 05:47:02;;;;;;;2.33;1.73;;;22.60;43.20;;;;;;5038930;28;20789;-64
2023/05/13 05:49:28;;;;;;;2.65;1.90;;;22.60;43.20;;;;;;5034567;28;20368;-64
2023/05/13 05:51:55;;;;;;;2.35;1.60;;;22.60;43.20;;;;;;5036313;28;20024;-64
2023/05/13 05:54:21;;;;;;;1.90;1.60;;;22.60;43.10;;;;;;5039409;28;20036;-64
2023/05/13 05:56:47;;;;;;;2.50;1.60;;;22.60;43.10;;;;;;5038301;28;20466;-64
2023/05/13 05:59:13;;;;;;;2.50;1.80;;;22.60;43.10;;;;;;5043293;28;20021;-65
2023/05/13 06:01:39;;;;;;;2.15;1.90;;;22.60;43.20;;;;;;5047665;28;20117;-64
2023/05/13 06:04:05;;;;;;;2.45;1.88;;;22.60;43.20;;;;;;5037974;28;20496;-65
2023/05/13 06:06:31;;;;;;;2.60;1.67;;;22.60;43.10;;;;;;5042710;28;20025;-64
2023/05/13 06:08:58;;;;;;;2.85;1.88;;;22.60;43.10;;;;;;5041120;28;20021;-65
2023/05/13 06:11:24;;;;;;;1.55;1.45;;;22.60;43.20;;;;;;5041444;28;20044;-64
2023/05/13 06:13:50;;;;;;;2.65;1.50;;;22.60;43.20;;;;;;5043620;28;20045;-64
2023/05/13 06:16:16;;;;;;;3.08;1.90;;;22.60;43.20;;;;;;5042267;28;20033;-62
2023/05/13 06:18:42;;;;;;;2.40;1.80;;;22.60;43.30;;;;;;5056144;28;20440;-64
2023/05/13 06:21:08;;;;;;;2.45;1.75;;;22.60;43.30;;;;;;5035058;28;20028;-63
2023/05/13 06:23:34;;;;;;;4.38;1.50;;;22.60;43.30;;;;;;5037738;28;20176;-63
2023/05/13 06:26:00;;;;;;;4.65;1.92;;;22.70;43.40;;;;;;5055251;28;20454;-62
2023/05/13 06:28:26;;;;;;;1.85;1.65;;;22.60;43.40;;;;;;5058370;28;20441;-64
2023/05/13 06:30:52;;;;;;;2.05;1.50;;;22.60;43.40;;;;;;5058881;28;20108;-64
2023/05/13 06:33:18;;;;;;;2.55;1.70;;;22.60;43.40;;;;;;5038366;28;20048;-64
2023/05/13 06:35:48;;;;;;;2.28;1.80;;;22.70;43.50;;;;;;5035447;28;21495;-66
2023/05/13 06:38:18;;;;;;;2.45;1.83;;;22.60;43.40;;;;;;5037364;28;20035;-64
2023/05/13 06:40:45;;;;;;;1.92;1.73;;;22.60;43.40;;;;;;5040580;28;20123;-64
2023/05/13 06:43:13;;;;;;;2.97;1.60;;;22.70;43.60;;;;;;5033777;28;20142;-64
2023/05/13 06:45:44;;;;;;;2.90;1.75;;;22.70;43.60;;;;;;5042907;28;20397;-63
2023/05/13 06:48:10;;;;;;;1.60;1.50;;;22.70;43.60;;;;;;5035583;28;20029;-63
2023/05/13 06:50:36;;;;;;;2.80;1.55;;;22.70;43.60;;;;;;5028480;28;20074;-65
2023/05/13 06:53:02;;;;;;;1.92;1.50;;;22.70;43.60;;;;;;5033318;28;20033;-65
2023/05/13 06:55:28;;;;;;;2.72;1.67;;;22.70;43.60;;;;;;5035479;28;20075;-64
2023/05/13 06:57:54;;;;;;;3.03;1.70;;;22.70;43.60;;;;;;5034560;28;20070;-63
2023/05/13 07:00:20;;;;;;;3.47;1.90;;;22.70;43.70;;;;;;5035990;28;20051;-64
2023/05/13 07:02:46;;;;;;;2.33;1.60;;;22.70;43.70;;;;;;5036058;28;20032;-63
2023/05/13 07:05:11;;;;;;;2.00;1.52;;;22.70;43.70;;;;;;5034980;28;20033;-65
2023/05/13 07:07:38;;;;;;;1.70;1.50;;;22.70;43.80;;;;;;5033518;28;20034;-63
2023/05/13 07:10:04;;;;;;;1.98;1.50;;;22.70;43.80;;;;;;5034604;28;20033;-64
2023/05/13 07:12:30;;;;;;;2.25;1.60;;;22.80;43.80;;;;;;5035292;28;20026;-62
2023/05/13 07:14:55;;;;;;;1.85;1.42;;;22.80;43.70;;;;;;5040510;28;20101;-66
2023/05/13 07:17:21;;;;;;;1.70;1.60;;;22.80;43.70;;;;;;5043014;28;20053;-63
2023/05/13 07:19:47;;;;;;;1.60;1.50;;;22.80;43.70;;;;;;5037337;28;20025;-64
2023/05/13 07:22:13;;;;;;;4.20;1.60;;;22.70;43.70;;;;;;5038930;28;20421;-64
2023/05/13 07:24:40;;;;;;;6.88;2.35;;;22.80;44.00;;;;;;5039018;28;20095;-63
2023/05/13 07:27:06;;;;;;;2.83;1.63;;;22.80;44.10;;;;;;5034619;28;20029;-63
2023/05/13 07:29:32;;;;;;;2.65;1.60;;;22.80;44.00;;;;;;5033408;28;20190;-64
2023/05/13 07:32:03;;;;;;;3.47;1.95;;;22.80;43.90;;;;;;5036282;28;20100;-62
2023/05/13 07:34:29;;;;;;;3.05;1.77;;;22.90;43.90;;;;;;5032349;28;20441;-64
2023/05/13 07:36:54;;;;;;;3.67;2.03;;;22.90;43.80;;;;;;5033830;28;20040;-64
2023/05/13 07:39:20;;;;;;;4.72;1.77;;;22.90;43.70;;;;;;5041374;28;20060;-63
2023/05/13 07:41:46;;;;;;;2.25;1.80;;;22.90;43.70;;;;;;5037295;28;20075;-62
2023/05/13 07:44:12;;;;;;;3.08;1.88;;;22.90;43.60;;;;;;5058578;28;20060;-63
2023/05/13 07:46:38;;;;;;;4.15;1.90;;;22.90;43.50;;;;;;5058261;28;20033;-62
2023/05/13 07:49:07;;;;;;;2.65;1.70;;;22.90;43.50;;;;;;5053194;28;20085;-63
2023/05/13 07:51:34;;;;;;;3.58;2.33;;;22.90;43.40;;;;;;5051877;28;20025;-64
2023/05/13 07:54:00;;;;;;;2.75;1.80;;;22.90;43.60;;;;;;5037091;28;20041;-63
2023/05/13 07:56:26;;;;;;;2.63;2.00;;;22.90;43.30;;;;;;5046378;28;20451;-64
2023/05/13 07:58:51;;;;;;;4.30;2.00;;;22.90;43.30;;;;;;5073580;28;20028;-63
2023/05/13 08:01:17;;;;;;;3.10;1.60;;;22.90;43.30;;;;;;5070420;28;20436;-62
2023/05/13 08:03:46;;;;;;;2.38;1.60;;;23.00;43.30;;;;;;5057800;28;20336;-64
2023/05/13 08:06:12;;;;;;;4.05;2.00;;;23.00;43.80;;;;;;5069878;28;20025;-61
2023/05/13 08:08:37;;;;;;;2.05;1.73;;;22.90;43.00;;;;;;5053430;28;20024;-63
2023/05/13 08:11:04;;;;;;;2.35;2.08;;;23.00;43.00;;;;;;5055145;28;20122;-62
2023/05/13 08:13:30;;;;;;;3.00;2.00;;;22.90;42.80;;;;;;5044463;28;20399;-66
2023/05/13 08:16:02;;;;;;;3.88;1.73;;;23.00;42.70;;;;;;5058060;28;20021;-66
2023/05/13 08:18:32;;;;;;;3.50;1.77;;;23.00;42.90;;;;;;5040590;28;20035;-66
2023/05/13 08:20:58;;;;;;;2.97;1.77;;;23.00;43.00;;;;;;5065426;28;20040;-66
2023/05/13 08:23:24;;;;;;;2.50;1.52;;;23.00;43.10;;;;;;5049217;28;20028;-66
2023/05/13 08:25:50;;;;;;;2.63;1.77;;;23.10;43.30;;;;;;5056072;28;20031;-66
2023/05/13 08:28:16;;;;;;;3.83;1.73;;;23.10;43.30;;;;;;5069600;28;20119;-66
2023/05/13 08:30:43;;;;;;;3.72;1.50;;;23.20;43.10;;;;;;5073588;28;20121;-66
2023/05/13 08:33:10;;;;;;;2.38;1.58;;;23.30;43.00;;;;;;5069164;28;20039;-66
2023/05/13 08:35:36;;;;;;;1.85;1.45;;;23.40;42.90;;;;;;5073264;28;20315;-65
2023/05/13 08:38:05;;;;;;;2.33;1.70;;;23.50;42.70;;;;;;5073703;28;20062;-64
2023/05/13 08:40:33;;;;;;;2.40;1.83;;;23.60;42.60;;;;;;5073592;28;20032;-67
2023/05/13 08:43:06;;;;;;;3.00;1.80;;;23.70;42.50;;;;;;5073397;28;20064;-65
2023/05/13 08:45:33;;;;;;;2.17;1.80;;;23.80;42.40;;;;;;5056269;28;20032;-67
2023/05/13 08:48:01;;;;;;;2.15;1.70;;;23.90;42.30;;;;;;5061191;28;20039;-66
2023/05/13 08:50:28;;;;;;;3.38;2.00;;;24.00;42.20;;;;;;5058652;28;20368;-66
2023/05/13 08:52:54;;;;;;;2.20;1.80;;;24.10;42.20;;;;;;5060458;28;20113;-63
2023/05/13 08:55:21;;;;;;;2.80;1.50;;;24.10;42.00;;;;;;5063385;28;20328;-64
2023/05/13 08:57:47;;;;;;;2.55;1.70;;;24.20;41.80;;;;;;5060692;28;20044;-63
2023/05/13 09:00:13;;;;;;;1.77;1.50;;;24.20;41.60;;;;;;5058469;28;20060;-62
2023/05/13 09:02:42;;;;;;;2.15;1.80;;;24.30;41.40;;;;;;5040624;28;20456;-65
2023/05/13 09:05:09;;;;;;;2.75;1.50;;;24.30;41.20;;;;;;5040778;28;20096;-63
2023/05/13 09:07:36;;;;;;;2.13;1.48;;;24.30;41.00;;;;;;5058031;28;20312;-62
2023/05/13 09:10:03;;;;;;;1.70;1.52;;;24.30;40.90;;;;;;5043815;28;20135;-62
2023/05/13 09:12:57;;;;;;;2.05;1.50;;;24.30;40.70;;;;;;5044519;28;20405;-63
2023/05/13 09:15:25;;;;;;;2.03;1.52;;;24.20;40.40;;;;;;5057576;28;20478;-63
2023/05/13 09:18:05;;;;;;;3.78;1.48;;;24.20;40.30;;;;;;5061035;28;20432;-63
2023/05/13 09:20:35;;;;;;;1.70;1.40;;;24.20;40.20;;;;;;5062105;28;20044;-63
2023/05/13 09:23:09;;;;;;;3.55;1.45;;;24.10;40.00;;;;;;5042475;28;20112;-62
2023/05/13 09:25:38;;;;;;;2.95;1.67;;;24.10;39.90;;;;;;5063027;28;20042;-66
2023/05/13 09:28:06;;;;;;;1.75;1.50;;;24.10;39.80;;;;;;5058174;28;20132;-63
2023/05/13 09:30:40;;;;;;;3.50;1.95;;;24.10;39.70;;;;;;5059253;28;20039;-63
2023/05/13 09:33:11;;;;;;;1.85;1.48;;;24.10;39.60;;;;;;5063845;28;20033;-63
2023/05/13 09:35:43;;;;;;;2.63;1.75;;;24.00;39.50;;;;;;5063655;28;20072;-63
2023/05/13 09:38:13;;;;;;;1.70;1.20;;;24.00;39.40;;;;;;5044073;28;20506;-62
2023/05/13 09:40:40;;;;;;;2.55;1.55;;;24.00;39.30;;;;;;5065699;28;20317;-63
2023/05/13 09:43:07;;;;;;;2.35;1.70;;;24.00;39.30;;;;;;5065601;28;20199;-64
2023/05/13 09:45:33;;;;;;;2.05;1.33;;;24.00;39.20;;;;;;5063966;28;20380;-63
2023/05/13 09:48:00;;;;;;;2.17;1.52;;;23.90;39.10;;;;;;5064996;28;20032;-63
2023/05/13 09:50:26;;;;;;;1.75;1.40;;;23.90;39.00;;;;;;5066407;28;20032;-63
2023/05/13 09:52:55;;;;;;;1.83;1.40;;;23.90;39.00;;;;;;5063132;28;20131;-63
2023/05/13 09:55:22;;;;;;;2.63;1.50;;;23.90;38.90;;;;;;5059165;28;20024;-63
2023/05/13 09:57:47;;;;;;;1.60;1.40;;;23.90;38.90;;;;;;5063289;28;20028;-63
2023/05/13 10:00:14;;;;;;;2.00;1.52;;;23.90;38.90;;;;;;5068090;28;20296;-63
2023/05/13 10:02:41;;;;;;;2.72;1.20;;;23.80;38.80;;;;;;5064729;28;20025;-62
2023/05/13 10:05:08;;;;;;;1.67;1.30;;;23.80;38.70;;;;;;5061794;28;20463;-63
2023/05/13 10:07:36;;;;;;;2.40;1.60;;;23.80;38.60;;;;;;5062520;28;20048;-63
2023/05/13 10:10:03;;;;;;;1.92;1.30;;;23.80;38.40;;;;;;5045243;28;20039;-63
2023/05/13 10:12:30;;;;;;;2.10;1.63;;;23.80;38.40;;;;;;5063052;28;20032;-63
2023/05/13 10:14:57;;;;;;;2.17;1.60;;;23.80;38.30;;;;;;5065676;28;20043;-63
2023/05/13 10:17:24;;;;;;;2.17;1.20;;;23.80;38.30;;;;;;5062644;28;20297;-63
2023/05/13 10:19:52;;;;;;;2.08;1.50;;;23.80;38.20;;;;;;5065225;28;20025;-63
2023/05/13 10:22:32;;;;;;;2.05;1.45;;;23.70;38.10;;;;;;5061501;28;20110;-63
2023/05/13 10:25:00;;;;;;;1.95;1.33;;;23.80;38.10;;;;;;5061938;28;20029;-62
2023/05/13 10:27:28;;;;;;;2.70;1.45;;;23.70;38.10;;;;;;5061120;28;20401;-63
2023/05/13 10:29:55;;;;;;;2.08;1.27;;;23.70;38.20;;;;;;5066046;28;20047;-63
2023/05/13 10:32:25;;;;;;;2.83;1.50;;;23.70;38.20;;;;;;5060655;28;20371;-62
2023/05/13 10:34:59;;;;;;;3.13;1.65;;;23.70;38.10;;;;;;5050272;28;20040;-62
2023/05/13 10:37:25;;;;;;;1.55;1.38;;;23.70;38.10;;;;;;5046792;28;20024;-63
2023/05/13 10:40:11;;;;;;;1.52;1.30;;;23.70;38.10;;;;;;5065315;28;20036;-64
2023/05/13 10:42:42;;;;;;;2.58;1.42;;;23.70;38.10;;;;;;5063200;28;20475;-63
2023/05/13 10:45:08;;;;;;;2.22;1.42;;;23.70;37.90;;;;;;5066542;28;20428;-63
2023/05/13 10:47:36;;;;;;;1.90;1.13;;;23.70;37.70;;;;;;5043973;28;20040;-63
2023/05/13 10:50:25;;;;;;;2.67;1.40;;;23.70;37.70;;;;;;5047351;28;20113;-63
2023/05/13 10:52:55;;;;;;;1.52;1.38;;;23.70;37.50;;;;;;5032586;28;20037;-63
2023/05/13 10:55:21;;;;;;;2.35;1.30;;;23.70;37.30;;;;;;5064487;28;20134;-64
2023/05/13 10:58:06;;;;;;;1.70;1.40;;;23.60;37.10;;;;;;5058560;28;20029;-63
2023/05/13 11:00:33;;;;;;;2.08;1.40;;;23.70;37.00;;;;;;5042938;28;20110;-64
2023/05/13 11:03:26;;;;;;;2.38;1.58;;;23.70;37.00;;;;;;5063738;28;20037;-65
2023/05/13 11:06:12;;;;;;;2.15;1.23;;;23.70;37.40;;;;;;5062411;28;20480;-64
2023/05/13 11:08:40;;;;;;;1.70;1.50;;;23.70;37.90;;;;;;5063532;28;20116;-63
2023/05/13 11:11:23;;;;;;;1.60;1.40;;;23.70;38.00;;;;;;5064411;28;20085;-64
2023/05/13 11:13:50;;;;;;;2.95;1.80;;;23.70;38.10;;;;;;5064317;28;20306;-64
2023/05/13 11:16:19;;;;;;;2.08;1.70;;;23.70;38.30;;;;;;5054728;28;20067;-63
2023/05/13 11:18:45;;;;;;;2.55;1.70;;;23.70;38.40;;;;;;5059265;28;20048;-64
2023/05/13 11:21:11;;;;;;;1.92;1.58;;;23.70;39.00;;;;;;5042956;28;20356;-64
2023/05/13 11:23:57;;;;;;;2.30;1.60;;;23.70;38.30;;;;;;5053709;28;20040;-65
2023/05/13 11:26:23;;;;;;;1.92;1.23;;;23.70;38.20;;;;;;5038578;28;20388;-64
2023/05/13 11:29:05;;;;;;;1.42;1.33;;;23.70;38.20;;;;;;5055749;28;20029;-64
2023/05/13 11:31:46;;;;;;;1.58;1.20;;;23.70;37.90;;;;;;5058990;28;20032;-64
2023/05/13 11:34:13;;;;;;;2.08;1.27;;;23.70;37.80;;;;;;5025177;28;20068;-64
2023/05/13 11:36:43;;;;;;;2.15;1.30;;;23.70;37.70;;;;;;5053073;28;20039;-65
2023/05/13 11:39:14;;;;;;;1.20;1.10;;;23.70;37.60;;;;;;5059208;28;20066;-67
2023/05/13 11:41:43;;;;;;;2.58;1.60;;;23.70;37.60;;;;;;5040605;28;20475;-63
2023/05/13 11:44:10;;;;;;;2.55;1.80;;;23.70;37.60;;;;;;5044590;28;20048;-65
2023/05/13 11:46:36;;;;;;;2.55;1.42;;;23.70;37.40;;;;;;5059962;28;20021;-65
2023/05/13 11:49:02;;;;;;;1.60;1.20;;;23.70;37.20;;;;;;5053371;28;20036;-64
2023/05/13 11:51:30;;;;;;;1.50;1.20;;;23.70;37.10;;;;;;5053650;28;20123;-65
2023/05/13 11:54:03;;;;;;;1.83;1.25;;;23.70;36.80;;;;;;5060188;28;20396;-65
2023/05/13 11:56:29;;;;;;;2.67;1.40;;;23.70;36.50;;;;;;5059253;28;20032;-65
2023/05/13 11:59:11;;;;;;;2.50;1.65;;;23.70;36.40;;;;;;5060527;28;20103;-63
2023/05/13 12:01:37;;;;;;;2.35;1.33;;;23.70;36.50;;;;;;5057961;28;20088;-64
2023/05/13 12:04:03;;;;;;;1.58;1.08;;;23.70;36.60;;;;;;5061346;28;20343;-64
2023/05/13 12:06:30;;;;;;;2.00;1.23;;;23.70;36.40;;;;;;5060379;28;20032;-65
2023/05/13 12:09:04;;;;;;;1.55;1.23;;;23.70;36.20;;;;;;5060815;28;20036;-65
2023/05/13 12:11:30;;;;;;;1.70;1.35;;;23.70;36.00;;;;;;5056773;28;20036;-65
2023/05/13 12:13:56;;;;;;;1.38;1.17;;;23.70;35.90;;;;;;5053585;28;20045;-64
2023/05/13 12:16:23;;;;;;;1.75;1.30;;;23.70;36.00;;;;;;5053302;28;20052;-65
2023/05/13 12:18:59;;;;;;;2.63;1.70;;;23.70;36.10;;;;;;5052799;28;20104;-64
2023/05/13 12:21:31;;;;;;;1.67;1.20;;;23.70;36.10;;;;;;5053603;28;20047;-65
2023/05/13 12:23:57;;;;;;;2.05;1.35;;;23.70;36.20;;;;;;5053301;28;20129;-65
2023/05/13 12:26:24;;;;;;;1.88;1.35;;;23.70;36.30;;;;;;5026761;28;20305;-65
2023/05/13 12:28:59;;;;;;;2.63;1.20;;;23.80;36.40;;;;;;5060776;28;20040;-66
2023/05/13 12:31:26;;;;;;;1.63;1.20;;;23.70;36.30;;;;;;5035012;28;20033;-66
2023/05/13 12:33:52;;;;;;;2.15;1.42;;;23.80;36.30;;;;;;5053905;28;20102;-65
2023/05/13 12:36:24;;;;;;;1.50;1.40;;;23.80;36.20;;;;;;5054534;28;20021;-63
2023/05/13 12:39:02;;;;;;;2.60;1.58;;;23.80;36.30;;;;;;5052800;28;20059;-64
2023/05/13 12:41:30;;;;;;;2.25;1.52;;;23.80;36.30;;;;;;5064549;28;20464;-65
2023/05/13 12:44:00;;;;;;;2.45;1.63;;;23.80;36.20;;;;;;5064497;28;20021;-66
2023/05/13 12:46:26;;;;;;;2.05;1.40;;;23.80;36.00;;;;;;5060809;28;20028;-65
2023/05/13 12:48:55;;;;;;;1.98;1.42;;;23.80;36.00;;;;;;5057562;28;20441;-65
2023/05/13 12:51:21;;;;;;;1.50;1.40;;;23.80;35.90;;;;;;5057355;28;20012;-64